createdAt,value
2022-09-09T00:02:27.567Z,1.98
2022-09-09T00:04:53.910Z,1.85
2022-09-09T00:07:55.777Z,2.00
2022-09-09T00:10:29.161Z,1.60
2022-09-09T00:12:56.872Z,1.40
2022-09-09T00:15:27.957Z,1.95
2022-09-09T00:18:02.802Z,1.85
2022-09-09T00:20:32.894Z,1.63
2022-09-09T00:23:13.957Z,2.15
2022-09-09T00:26:00.607Z,1.98
2022-09-09T00:28:28.065Z,1.90
2022-09-09T00:30:55.356Z,1.90
2022-09-09T00:33:24.217Z,2.10
2022-09-09T00:35:50.589Z,2.40
2022-09-09T00:38:20.173Z,3.13
2022-09-09T00:40:51.030Z,3.03
2022-09-09T00:43:47.177Z,3.13
2022-09-09T00:46:42.653Z,3.25
2022-09-09T00:49:16.273Z,3.20
2022-09-09T00:51:57.320Z,3.13
2022-09-09T00:54:23.620Z,2.83
2022-09-09T00:57:03.013Z,3.25
2022-09-09T00:59:33.205Z,2.92
2022-09-09T01:01:59.783Z,3.00
2022-09-09T01:04:31.664Z,3.10
2022-09-09T01:07:02.966Z,3.78
2022-09-09T01:09:47.912Z,3.38
2022-09-09T01:12:18.162Z,3.65
2022-09-09T01:14:51.529Z,3.97
2022-09-09T01:17:29.973Z,4.50
2022-09-09T01:20:09.004Z,3.90
2022-09-09T01:22:51.164Z,3.88
2022-09-09T01:25:17.805Z,4.47
2022-09-09T01:27:59.648Z,3.30
2022-09-09T01:30:27.065Z,3.78
2022-09-09T01:32:55.215Z,3.60
2022-09-09T01:35:35.236Z,3.78
2022-09-09T01:38:03.027Z,3.47
2022-09-09T01:40:30.178Z,3.45
2022-09-09T01:42:57.580Z,3.95
2022-09-09T01:53:42.696Z,3.03
2022-09-09T01:56:31.000Z,3.15
2022-09-09T01:58:57.454Z,3.17
2022-09-09T02:01:30.323Z,3.50
2022-09-09T02:03:59.854Z,3.03
2022-09-09T02:06:37.417Z,3.63
2022-09-09T02:09:18.724Z,3.10
2022-09-09T02:11:47.977Z,3.42
2022-09-09T02:14:24.663Z,3.30
2022-09-09T02:16:55.646Z,3.92
2022-09-09T02:19:32.713Z,3.70
2022-09-09T02:22:08.377Z,3.80
2022-09-09T02:24:37.185Z,3.33
2022-09-09T02:27:16.442Z,4.22
2022-09-09T02:29:44.068Z,3.67
2022-09-09T02:32:14.488Z,3.88
2022-09-09T02:34:44.001Z,3.38
2022-09-09T02:37:11.729Z,3.55
2022-09-09T02:39:39.982Z,3.58
2022-09-09T02:42:09.493Z,3.50
2022-09-09T02:44:37.230Z,4.20
2022-09-09T02:47:29.511Z,3.70
2022-09-09T02:50:03.159Z,4.10
2022-09-09T02:52:39.530Z,4.10
2022-09-09T02:55:10.845Z,4.22
2022-09-09T02:57:37.842Z,4.65
2022-09-09T03:00:06.321Z,4.05
2022-09-09T03:02:34.111Z,3.72
2022-09-09T03:05:06.125Z,4.50
2022-09-09T03:07:32.544Z,4.03
2022-09-09T03:09:59.172Z,4.43
2022-09-09T03:12:27.415Z,4.55
2022-09-09T03:14:53.806Z,4.20
2022-09-09T03:17:20.312Z,4.22
2022-09-09T03:19:53.298Z,4.40
2022-09-09T03:22:19.741Z,3.63
2022-09-09T03:24:47.832Z,4.05
2022-09-09T03:27:15.785Z,4.30
2022-09-09T03:29:42.816Z,4.25
2022-09-09T03:32:14.129Z,4.72
2022-09-09T03:34:41.360Z,4.50
2022-09-09T03:37:11.093Z,4.35
2022-09-09T03:39:37.678Z,4.53
2022-09-09T03:42:04.924Z,4.30
2022-09-09T03:44:31.945Z,4.53
2022-09-09T03:47:01.133Z,4.65
2022-09-09T03:49:29.481Z,3.80
2022-09-09T03:51:58.053Z,4.32
2022-09-09T03:54:24.869Z,4.20
2022-09-09T03:56:51.472Z,5.10
2022-09-09T03:59:18.078Z,4.55
2022-09-09T04:01:46.223Z,4.10
2022-09-09T04:04:13.259Z,5.75
2022-09-09T04:06:39.792Z,4.55
2022-09-09T04:09:07.133Z,4.85
2022-09-09T04:11:34.917Z,5.00
2022-09-09T04:14:01.493Z,4.85
2022-09-09T04:16:30.197Z,5.32
2022-09-09T04:18:57.037Z,4.78
2022-09-09T04:21:24.133Z,4.22
2022-09-09T04:23:50.561Z,4.95
2022-09-09T04:26:17.213Z,3.80
2022-09-09T04:28:45.065Z,4.75
2022-09-09T04:31:18.828Z,4.85
2022-09-09T04:33:47.457Z,4.78
2022-09-09T04:36:13.973Z,5.22
2022-09-09T04:38:40.424Z,5.18
2022-09-09T04:41:06.882Z,5.18
2022-09-09T04:43:35.314Z,5.35
2022-09-09T04:46:04.254Z,5.18
2022-09-09T04:48:32.006Z,4.93
2022-09-09T04:51:01.033Z,4.55
2022-09-09T04:53:28.037Z,4.80
2022-09-09T04:56:02.228Z,4.85
2022-09-09T04:58:30.008Z,4.25
2022-09-09T05:01:03.201Z,4.30
2022-09-09T05:03:29.661Z,3.92
2022-09-09T05:06:03.430Z,4.10
2022-09-09T05:08:30.098Z,3.63
2022-09-09T05:10:56.576Z,3.90
2022-09-09T05:13:23.744Z,3.72
2022-09-09T05:15:53.947Z,3.92
2022-09-09T05:18:21.046Z,3.58
2022-09-09T05:20:47.457Z,3.30
2022-09-09T05:23:14.292Z,3.55
2022-09-09T05:25:44.486Z,3.50
2022-09-09T05:28:12.657Z,3.22
2022-09-09T05:30:39.425Z,3.45
2022-09-09T05:33:07.587Z,3.22
2022-09-09T05:35:34.485Z,3.50
2022-09-09T05:38:01.672Z,3.90
2022-09-09T05:40:28.392Z,2.90
2022-09-09T05:42:54.831Z,3.30
2022-09-09T05:45:21.491Z,3.47
2022-09-09T05:47:53.173Z,3.40
2022-09-09T05:50:19.924Z,3.20
2022-09-09T05:52:46.492Z,4.43
2022-09-09T05:55:13.629Z,3.25
2022-09-09T05:57:40.311Z,3.60
2022-09-09T06:00:07.098Z,3.25
2022-09-09T06:02:42.291Z,3.38
2022-09-09T06:05:13.701Z,2.70
2022-09-09T06:07:43.596Z,2.58
2022-09-09T06:10:10.133Z,2.83
2022-09-09T06:12:36.846Z,2.58
2022-09-09T06:15:03.417Z,3.15
2022-09-09T06:17:29.829Z,2.10
2022-09-09T06:19:57.193Z,2.70
2022-09-09T06:22:23.598Z,2.80
2022-09-09T06:24:50.137Z,3.25
2022-09-09T06:27:17.012Z,2.90
2022-09-09T06:29:43.398Z,2.90
2022-09-09T06:32:09.961Z,3.08
2022-09-09T06:34:37.487Z,3.40
2022-09-09T06:37:04.050Z,3.30
2022-09-09T06:39:38.803Z,2.70
2022-09-09T06:42:06.076Z,3.15
2022-09-09T06:44:51.022Z,3.00
2022-09-09T06:47:25.534Z,2.70
2022-09-09T06:49:51.972Z,2.45
2022-09-09T06:52:19.123Z,2.30
2022-09-09T06:54:46.232Z,2.78
2022-09-09T06:57:34.019Z,2.25
2022-09-09T07:00:00.658Z,2.22
2022-09-09T07:02:27.102Z,2.60
2022-09-09T07:04:53.912Z,2.53
2022-09-09T07:07:20.790Z,2.72
2022-09-09T07:09:47.378Z,2.50
2022-09-09T07:12:14.216Z,2.55
2022-09-09T07:14:47.776Z,2.90
2022-09-09T07:17:14.168Z,2.20
2022-09-09T07:19:40.656Z,1.67
2022-09-09T07:22:07.291Z,2.40
2022-09-09T07:24:34.956Z,2.47
2022-09-09T07:27:01.313Z,2.50
2022-09-09T07:29:29.048Z,2.28
2022-09-09T07:31:57.151Z,2.78
2022-09-09T07:34:29.039Z,2.03
2022-09-09T07:36:58.361Z,2.47
2022-09-09T07:39:25.004Z,2.47
2022-09-09T07:41:55.524Z,2.15
2022-09-09T07:44:24.097Z,2.45
2022-09-09T07:46:56.433Z,1.90
2022-09-09T07:49:32.717Z,2.10
2022-09-09T07:52:01.029Z,2.28
2022-09-09T07:54:28.608Z,1.80
2022-09-09T07:56:54.944Z,1.77
2022-09-09T07:59:25.193Z,1.70
2022-09-09T08:01:56.461Z,1.98
2022-09-09T08:04:27.599Z,2.00
2022-09-09T08:06:58.998Z,2.30
2022-09-09T08:09:28.034Z,2.03
2022-09-09T08:11:57.425Z,1.73
2022-09-09T08:14:24.981Z,2.15
2022-09-09T08:16:54.836Z,1.83
2022-09-09T08:19:24.381Z,2.00
2022-09-09T08:21:51.905Z,1.77
2022-09-09T08:24:20.458Z,2.50
2022-09-09T08:26:50.174Z,1.88
2022-09-09T08:29:19.546Z,2.10
2022-09-09T08:31:52.179Z,2.42
2022-09-09T08:34:20.755Z,2.45
2022-09-09T08:36:49.603Z,2.08
2022-09-09T08:39:17.240Z,1.88
2022-09-09T08:41:52.400Z,1.67
2022-09-09T08:44:37.601Z,1.60
2022-09-09T08:47:24.689Z,2.08
2022-09-09T08:50:17.109Z,1.77
2022-09-09T08:55:31.359Z,1.60
2022-09-09T08:58:01.940Z,1.50
2022-09-09T09:00:45.306Z,1.73
2022-09-09T09:03:31.089Z,1.63
2022-09-09T09:05:58.842Z,1.50
2022-09-09T09:08:39.037Z,1.75
2022-09-09T09:11:06.892Z,1.50
2022-09-09T09:13:43.051Z,1.98
2022-09-09T09:16:29.368Z,1.90
2022-09-09T09:18:56.083Z,1.60
2022-09-09T09:21:34.393Z,2.08
2022-09-09T09:24:01.524Z,1.70
2022-09-09T09:26:33.508Z,1.90
2022-09-09T09:29:01.717Z,2.05
2022-09-09T09:31:28.505Z,1.92
2022-09-09T09:33:55.704Z,1.77
2022-09-09T09:36:42.231Z,1.80
2022-09-09T09:42:08.705Z,1.52
2022-09-09T09:44:38.072Z,2.17
2022-09-09T09:47:22.018Z,1.63
2022-09-09T09:50:02.032Z,2.05
2022-09-09T09:52:33.226Z,2.25
2022-09-09T09:55:07.488Z,1.48
2022-09-09T09:57:35.149Z,1.63
2022-09-09T10:00:14.604Z,1.67
2022-09-09T10:02:49.137Z,1.65
2022-09-09T10:05:27.487Z,2.33
2022-09-09T10:08:06.336Z,1.77
2022-09-09T10:10:41.573Z,2.08
2022-09-09T10:13:14.289Z,1.58
2022-09-09T10:15:47.260Z,1.75
2022-09-09T10:18:32.416Z,1.67
2022-09-09T10:21:12.868Z,1.88
2022-09-09T10:23:53.277Z,2.10
2022-09-09T10:26:55.980Z,1.83
2022-09-09T10:29:28.230Z,1.52
2022-09-09T10:32:00.328Z,1.73
2022-09-09T10:34:29.718Z,1.92
2022-09-09T10:36:59.290Z,1.65
2022-09-09T10:39:43.746Z,1.52
2022-09-09T10:42:13.314Z,1.80
2022-09-09T10:44:52.699Z,2.03
2022-09-09T10:47:29.202Z,1.48
2022-09-09T10:50:11.534Z,1.50
2022-09-09T10:52:41.504Z,1.40
2022-09-09T10:55:11.253Z,2.25
2022-09-09T10:57:40.675Z,2.33
2022-09-09T11:00:14.401Z,1.80
2022-09-09T11:02:43.016Z,1.70
2022-09-09T11:05:20.916Z,1.70
2022-09-09T11:07:57.021Z,1.70
2022-09-09T11:10:42.422Z,2.00
2022-09-09T11:13:11.820Z,1.58
2022-09-09T11:15:44.424Z,1.95
2022-09-09T11:18:20.105Z,1.67
2022-09-09T11:20:49.613Z,1.90
2022-09-09T11:23:23.678Z,1.95
2022-09-09T11:25:53.543Z,2.40
2022-09-09T11:28:38.094Z,2.15
2022-09-09T11:31:33.968Z,2.03
2022-09-09T11:34:00.417Z,1.70
2022-09-09T11:36:43.767Z,1.98
2022-09-09T11:39:28.570Z,2.47
2022-09-09T11:41:54.928Z,1.70
2022-09-09T11:44:28.010Z,1.70
2022-09-09T11:46:54.393Z,2.17
2022-09-09T11:49:32.349Z,2.50
2022-09-09T11:51:58.665Z,2.22
2022-09-09T11:54:30.271Z,2.30
2022-09-09T11:56:57.516Z,1.70
2022-09-09T11:59:28.478Z,1.83
2022-09-09T12:02:02.674Z,1.70
2022-09-09T12:04:31.315Z,1.75
2022-09-09T12:07:03.408Z,1.70
2022-09-09T12:09:40.407Z,1.35
2022-09-09T12:12:07.748Z,1.42
2022-09-09T12:14:38.717Z,1.08
2022-09-09T12:17:14.136Z,1.10
2022-09-09T12:19:40.515Z,1.20
2022-09-09T12:22:06.827Z,1.20
2022-09-09T12:24:47.565Z,1.60
2022-09-09T12:27:14.108Z,1.40
2022-09-09T12:29:53.817Z,0.90
2022-09-09T12:32:25.392Z,1.40
2022-09-09T12:34:52.255Z,1.03
2022-09-09T12:37:30.525Z,1.05
2022-09-09T12:40:08.013Z,1.50
2022-09-09T12:42:37.901Z,1.50
2022-09-09T12:47:38.607Z,2.03
2022-09-09T12:50:05.308Z,1.60
2022-09-09T12:52:38.169Z,2.28
2022-09-09T12:55:06.405Z,1.52
2022-09-09T12:57:35.370Z,2.05
2022-09-09T13:00:12.826Z,1.90
2022-09-09T13:02:46.509Z,1.73
2022-09-09T13:05:17.338Z,2.05
2022-09-09T13:07:44.119Z,2.15
2022-09-09T13:10:18.114Z,1.63
2022-09-09T13:12:51.986Z,1.77
2022-09-09T13:15:23.639Z,2.00
2022-09-09T13:17:51.602Z,1.98
2022-09-09T13:20:19.003Z,1.65
2022-09-09T13:22:45.394Z,1.38
2022-09-09T13:25:12.417Z,1.42
2022-09-09T13:27:40.442Z,1.70
2022-09-09T13:30:25.586Z,1.92
2022-09-09T13:33:10.245Z,1.60
2022-09-09T13:35:47.204Z,2.03
2022-09-09T13:38:15.152Z,1.58
2022-09-09T13:40:52.998Z,1.50
2022-09-09T13:43:22.151Z,1.80
2022-09-09T13:45:59.376Z,1.77
2022-09-09T13:48:26.679Z,1.63
2022-09-09T13:51:03.959Z,1.98
2022-09-09T13:53:30.828Z,2.10
2022-09-09T13:55:57.839Z,2.30
2022-09-09T13:58:26.018Z,2.05
2022-09-09T14:00:53.654Z,2.35
2022-09-09T14:03:20.730Z,2.10
2022-09-09T14:05:47.430Z,3.08
2022-09-09T14:08:17.196Z,2.00
2022-09-09T14:10:43.489Z,2.22
2022-09-09T14:13:09.817Z,1.48
2022-09-09T14:15:36.241Z,1.30
2022-09-09T14:18:03.076Z,1.13
2022-09-09T14:20:29.375Z,1.25
2022-09-09T14:22:55.713Z,1.48
2022-09-09T14:25:22.019Z,1.00
2022-09-09T14:27:48.328Z,0.98
2022-09-09T14:30:14.738Z,1.30
2022-09-09T14:32:41.073Z,1.13
2022-09-09T14:35:08.149Z,1.35
2022-09-09T14:37:34.465Z,1.50
2022-09-09T14:40:00.846Z,1.88
2022-09-09T14:42:27.790Z,1.60
2022-09-09T14:44:54.111Z,1.15
2022-09-09T14:47:20.445Z,1.40
2022-09-09T14:49:47.355Z,1.50
2022-09-09T14:52:14.055Z,1.60
2022-09-09T14:54:40.494Z,1.25
2022-09-09T14:57:06.779Z,1.52
2022-09-09T14:59:33.086Z,1.58
2022-09-09T15:02:01.658Z,1.65
2022-09-09T15:04:28.612Z,1.13
2022-09-09T15:06:54.995Z,1.00
2022-09-09T15:09:21.385Z,1.23
2022-09-09T15:11:47.750Z,0.98
2022-09-09T15:14:14.098Z,1.55
2022-09-09T15:16:40.846Z,1.20
2022-09-09T15:19:07.387Z,1.30
2022-09-09T15:21:35.357Z,1.30
2022-09-09T15:24:01.789Z,1.63
2022-09-09T15:26:28.489Z,1.45
2022-09-09T15:28:55.663Z,1.33
2022-09-09T15:31:23.109Z,1.50
2022-09-09T15:33:53.673Z,1.30
2022-09-09T15:36:24.226Z,1.50
2022-09-09T15:38:51.207Z,1.17
2022-09-09T15:41:18.212Z,1.20
2022-09-09T15:43:45.876Z,1.33
2022-09-09T15:46:18.378Z,1.40
2022-09-09T15:51:31.161Z,1.70
2022-09-09T15:53:59.289Z,1.60
2022-09-09T15:56:29.220Z,1.25
2022-09-09T15:58:59.740Z,1.27
2022-09-09T16:01:27.623Z,1.00
2022-09-09T16:03:54.390Z,1.38
2022-09-09T16:06:22.335Z,1.85
2022-09-09T16:08:51.118Z,2.80
2022-09-09T16:11:20.674Z,2.08
2022-09-09T16:13:51.006Z,1.45
2022-09-09T16:16:19.056Z,1.40
2022-09-09T16:18:49.367Z,1.23
2022-09-09T16:21:17.264Z,1.35
2022-09-09T16:23:44.768Z,1.42
2022-09-09T16:26:11.978Z,1.27
2022-09-09T16:28:38.277Z,1.05
2022-09-09T16:31:05.377Z,1.20
2022-09-09T16:33:31.852Z,1.23
2022-09-09T16:35:58.298Z,1.15
2022-09-09T16:38:25.197Z,1.02
2022-09-09T16:40:51.724Z,1.02
2022-09-09T16:43:19.156Z,1.48
2022-09-09T16:45:46.195Z,1.10
2022-09-09T16:48:12.852Z,1.40
2022-09-09T16:50:40.143Z,1.20
2022-09-09T16:53:09.608Z,1.30
2022-09-09T16:55:43.350Z,1.10
2022-09-09T16:58:11.813Z,0.77
2022-09-09T17:00:38.307Z,1.17
2022-09-09T17:03:04.812Z,1.67
2022-09-09T17:05:31.281Z,0.98
2022-09-09T17:07:58.456Z,0.90
2022-09-09T17:10:26.098Z,1.00
2022-09-09T17:12:52.536Z,0.93
2022-09-09T17:15:19.731Z,1.08
2022-09-09T17:17:49.933Z,0.80
2022-09-09T17:20:16.973Z,0.88
2022-09-09T17:22:43.436Z,0.70
2022-09-09T17:25:09.926Z,0.90
2022-09-09T17:27:36.308Z,1.05
2022-09-09T17:30:03.863Z,0.80
2022-09-09T17:32:31.319Z,1.00
2022-09-09T17:34:57.856Z,0.80
2022-09-09T17:37:24.177Z,0.88
2022-09-09T17:39:50.771Z,0.70
2022-09-09T17:42:17.123Z,0.77
2022-09-09T17:44:43.472Z,1.10
2022-09-09T17:47:09.838Z,1.75
2022-09-09T17:49:36.170Z,1.63
2022-09-09T17:52:02.649Z,1.90
2022-09-09T17:54:29.012Z,2.00
2022-09-09T17:56:55.342Z,2.10
2022-09-09T17:59:21.638Z,1.80
2022-09-09T18:01:49.475Z,2.30
2022-09-09T18:04:17.334Z,1.75
2022-09-09T18:06:44.815Z,1.63
2022-09-09T18:09:13.323Z,1.90
2022-09-09T18:11:43.881Z,1.80
2022-09-09T18:14:12.593Z,1.63
2022-09-09T18:16:39.663Z,1.83
2022-09-09T18:19:09.445Z,2.00
2022-09-09T18:21:36.078Z,1.95
2022-09-09T18:24:04.615Z,2.17
2022-09-09T18:26:33.496Z,1.60
2022-09-09T18:29:03.746Z,2.78
2022-09-09T18:31:30.513Z,1.60
2022-09-09T18:33:58.368Z,1.60
2022-09-09T18:36:44.714Z,1.73
2022-09-09T18:39:13.616Z,1.63
2022-09-09T18:41:41.941Z,1.63
2022-09-09T18:44:10.539Z,1.90
2022-09-09T18:46:37.125Z,1.60
2022-09-09T18:49:03.663Z,2.05
2022-09-09T18:51:30.106Z,1.60
2022-09-09T18:53:57.768Z,1.90
2022-09-09T18:56:24.517Z,1.60
2022-09-09T18:58:54.532Z,1.40
2022-09-09T19:01:21.686Z,1.60
2022-09-09T19:03:48.719Z,1.55
2022-09-09T19:06:19.188Z,1.65
2022-09-09T19:08:46.372Z,1.80
2022-09-09T19:11:16.116Z,2.13
2022-09-09T19:13:45.668Z,1.60
2022-09-09T19:16:13.222Z,1.80
2022-09-09T19:18:39.955Z,1.85
2022-09-09T19:21:13.404Z,2.28
2022-09-09T19:23:40.455Z,2.00
2022-09-09T19:26:06.818Z,2.30
2022-09-09T19:28:34.128Z,2.17
2022-09-09T19:31:07.983Z,2.30
2022-09-09T19:33:35.375Z,2.17
2022-09-09T19:36:02.756Z,1.85
2022-09-09T19:38:29.437Z,2.22
2022-09-09T19:40:56.708Z,2.55
2022-09-09T19:43:24.229Z,2.25
2022-09-09T19:45:57.602Z,2.53
2022-09-09T19:48:25.209Z,2.67
2022-09-09T19:50:51.529Z,2.90
2022-09-09T19:53:17.849Z,2.63
2022-09-09T19:55:44.141Z,3.38
2022-09-09T19:58:10.445Z,3.10
2022-09-09T20:00:39.618Z,3.55
2022-09-09T20:03:18.748Z,2.97
2022-09-09T20:05:45.688Z,3.58
2022-09-09T20:08:11.985Z,3.53
2022-09-09T20:10:38.308Z,3.83
2022-09-09T20:13:04.625Z,4.05
2022-09-09T20:15:30.942Z,3.70
2022-09-09T20:17:57.317Z,4.63
2022-09-09T20:20:23.637Z,4.57
2022-09-09T20:22:50.044Z,3.38
2022-09-09T20:25:16.461Z,3.58
2022-09-09T20:27:42.839Z,4.05
2022-09-09T20:30:09.421Z,4.72
2022-09-09T20:32:36.010Z,4.63
2022-09-09T20:35:02.392Z,4.53
2022-09-09T20:37:28.774Z,5.10
2022-09-09T20:39:55.679Z,3.90
2022-09-09T20:42:22.056Z,4.53
2022-09-09T20:44:48.798Z,4.90
2022-09-09T20:47:15.205Z,4.35
2022-09-09T20:49:41.553Z,4.60
2022-09-09T20:52:07.889Z,4.53
2022-09-09T20:54:35.836Z,5.10
2022-09-09T20:57:02.861Z,5.03
2022-09-09T20:59:31.147Z,4.22
2022-09-09T21:01:57.946Z,5.50
2022-09-09T21:04:24.957Z,5.90
2022-09-09T21:06:51.504Z,4.95
2022-09-09T21:09:19.206Z,4.70
2022-09-09T21:11:47.081Z,5.43
2022-09-09T21:14:13.685Z,4.40
2022-09-09T21:16:40.055Z,4.80
2022-09-09T21:19:06.736Z,4.38
2022-09-09T21:21:33.234Z,4.03
2022-09-09T21:24:00.490Z,4.22
2022-09-09T21:26:26.921Z,3.80
2022-09-09T21:28:54.833Z,4.28
2022-09-09T21:31:27.037Z,3.97
2022-09-09T21:33:54.119Z,3.22
2022-09-09T21:36:20.497Z,3.80
2022-09-09T21:38:46.921Z,3.28
2022-09-09T21:41:14.150Z,2.85
2022-09-09T21:43:41.907Z,3.70
2022-09-09T21:46:12.419Z,3.80
2022-09-09T21:48:39.098Z,4.00
2022-09-09T21:51:06.853Z,4.47
2022-09-09T21:53:34.345Z,4.10
2022-09-09T21:56:01.746Z,3.67
2022-09-09T21:58:28.174Z,4.38
2022-09-09T22:00:54.533Z,4.22
2022-09-09T22:03:20.865Z,3.90
2022-09-09T22:05:49.712Z,3.80
2022-09-09T22:08:20.063Z,4.53
2022-09-09T22:10:47.068Z,4.05
2022-09-09T22:13:14.605Z,4.57
2022-09-09T22:15:45.594Z,4.03
2022-09-09T22:18:13.192Z,4.35
2022-09-09T22:20:41.678Z,4.70
2022-09-09T22:23:08.806Z,3.75
2022-09-09T22:25:35.856Z,4.40
2022-09-09T22:28:02.899Z,4.05
2022-09-09T22:30:29.453Z,3.70
2022-09-09T22:32:56.732Z,4.10
2022-09-09T22:35:23.301Z,4.13
2022-09-09T22:37:49.764Z,4.35
2022-09-09T22:40:16.157Z,4.78
2022-09-09T22:42:42.564Z,4.40
2022-09-09T22:45:10.085Z,3.78
2022-09-09T22:47:36.665Z,3.70
2022-09-09T22:50:03.962Z,3.60
2022-09-09T22:52:31.737Z,4.40
2022-09-09T22:54:58.996Z,4.25
2022-09-09T22:57:26.109Z,4.00
2022-09-09T22:59:52.581Z,4.50
2022-09-09T23:02:20.581Z,3.65
2022-09-09T23:04:48.385Z,3.15
2022-09-09T23:07:17.663Z,3.67
2022-09-09T23:09:44.081Z,4.47
2022-09-09T23:12:10.881Z,3.30
2022-09-09T23:14:37.616Z,3.95
2022-09-09T23:17:03.988Z,3.75
2022-09-09T23:19:30.488Z,3.53
2022-09-09T23:21:58.217Z,3.72
2022-09-09T23:24:24.842Z,3.53
2022-09-09T23:26:52.329Z,4.45
2022-09-09T23:29:19.142Z,3.67
2022-09-09T23:31:45.873Z,3.78
2022-09-09T23:34:12.951Z,4.00
2022-09-09T23:36:39.484Z,4.50
2022-09-09T23:39:06.420Z,4.20
2022-09-09T23:41:35.251Z,4.00
2022-09-09T23:44:02.363Z,3.60
2022-09-09T23:46:29.640Z,4.43
2022-09-09T23:48:57.428Z,4.18
2022-09-09T23:51:25.102Z,4.05
2022-09-09T23:53:52.805Z,4.95
2022-09-09T23:56:23.565Z,4.35
2022-09-09T23:58:50.485Z,4.47
